Time;durP1;ratioP1;P1;durP2;ratioP2;P2;SDS_P1;SDS_P2;PMS_P1;PMS_P2;Temp;Humidity;BMP_temperature;BMP_pressure;BME280_temperature;BME280_humidity;BME280_pressure;Samples;Min_cycle;Max_cycle;Signal;HPM_P1;HPM_P2
2024/04/26 00:01:54;;;;;;;;;;;;;;;;;;5391994;26;19957;-72
2024/04/26 00:04:22;;;;;;;;;;;;;;;;;;5422472;26;19929;-72
2024/04/26 00:06:51;;;;;;;;;;;;;;;;;;5422326;26;19936;-72
2024/04/26 00:09:20;;;;;;;;;;;;;;;;;;5423404;26;19929;-72
2024/04/26 00:11:45;;;;;;;;;;;;;;;;;;5422060;26;19940;-72
2024/04/26 00:14:14;;;;;;;;;;;;;;;;;;5404420;26;19929;-73
2024/04/26 00:16:43;;;;;;;;;;;;;;;;;;5416030;26;19928;-73
2024/04/26 00:19:11;;;;;;;;;;;;;;;;;;5423420;26;19929;-71
2024/04/26 00:21:40;;;;;;;;;;;;;;;;;;5405109;26;19929;-72
2024/04/26 00:24:08;;;;;;;;;;;;;;;;;;5410279;26;19941;-72
2024/04/26 00:26:37;;;;;;;;;;;;;;;;;;5421857;26;19936;-72
2024/04/26 00:29:06;;;;;;;;;;;;;;;;;;5398166;26;19929;-71
2024/04/26 00:31:34;;;;;;;;;;;;;;;;;;5422344;26;20271;-72
2024/04/26 00:34:03;;;;;;;;;;;;;;;;;;5422462;26;20379;-73
2024/04/26 00:36:31;;;;;;;;;;;;;;;;;;5422365;26;19929;-72
2024/04/26 00:39:00;;;;;;;;;;;;;;;;;;5422625;26;20387;-72
2024/04/26 00:41:28;;;;;;;;;;;;;;;;;;5415181;26;19930;-72
2024/04/26 00:43:57;;;;;;;;;;;;;;;;;;5406488;26;19929;-72
2024/04/26 00:46:26;;;;;;;;;;;;;;;;;;5440827;21;19929;-72
2024/04/26 00:48:54;;;;;;;;;;;;;;;;;;5417107;26;19929;-71
2024/04/26 00:51:23;;;;;;;;;;;;;;;;;;5417083;26;19936;-72
2024/04/26 00:53:51;;;;;;;;;;;;;;;;;;5416214;26;19937;-72
2024/04/26 00:56:20;;;;;;;;;;;;;;;;;;5401846;26;19936;-72
2024/04/26 00:58:48;;;;;;;;;;;;;;;;;;5381785;26;19937;-72
2024/04/26 01:01:17;;;;;;;;;;;;;;;;;;5380952;26;19930;-72
2024/04/26 01:03:46;;;;;;;;;;;;;;;;;;5380981;26;19929;-72
2024/04/26 01:06:14;;;;;;;;;;;;;;;;;;5381311;26;19933;-72
2024/04/26 01:08:43;;;;;;;;;;;;;;;;;;5381402;26;19926;-72
2024/04/26 01:11:12;;;;;;;;;;;;;;;;;;5381477;26;19925;-72
2024/04/26 01:13:40;;;;;;;;;;;;;;;;;;5381015;26;19932;-72
2024/04/26 01:16:09;;;;;;;;;;;;;;;;;;5381186;26;19926;-71
2024/04/26 01:18:37;;;;;;;;;;;;;;;;;;5381553;26;19933;-72
2024/04/26 01:21:06;;;;;;;;;;;;;;;;;;5381222;26;19925;-72
2024/04/26 01:23:35;;;;;;;;;;;;;;;;;;5380937;26;19934;-72
2024/04/26 01:26:03;;;;;;;;;;;;;;;;;;5381088;26;19926;-71
2024/04/26 01:28:32;;;;;;;;;;;;;;;;;;5381191;26;19926;-72
2024/04/26 01:31:00;;;;;;;;;;;;;;;;;;5380998;26;19933;-72
2024/04/26 01:33:29;;;;;;;;;;;;;;;;;;5380595;26;19925;-72
2024/04/26 01:35:57;;;;;;;;;;;;;;;;;;5380972;26;19926;-72
2024/04/26 01:38:26;;;;;;;;;;;;;;;;;;5381019;26;19926;-72
2024/04/26 01:40:55;;;;;;;;;;;;;;;;;;5381060;26;19933;-72
2024/04/26 01:43:23;;;;;;;;;;;;;;;;;;5380696;26;19925;-72
2024/04/26 01:45:52;;;;;;;;;;;;;;;;;;5380632;26;19926;-72
2024/04/26 01:48:20;;;;;;;;;;;;;;;;;;5381005;26;19925;-72
2024/04/26 01:50:49;;;;;;;;;;;;;;;;;;5380896;26;19932;-72
2024/04/26 01:53:17;;;;;;;;;;;;;;;;;;5380380;26;19925;-72
2024/04/26 01:55:43;;;;;;;;;;;;;;;;;;5380747;26;20268;-72
2024/04/26 01:58:12;;;;;;;;;;;;;;;;;;5380705;26;19934;-72
2024/04/26 02:00:38;;;;;;;;;;;;;;;;;;5380744;26;19925;-72
2024/04/26 02:03:07;;;;;;;;;;;;;;;;;;5380244;26;19925;-72
2024/04/26 02:05:33;;;;;;;;;;;;;;;;;;5380813;26;19929;-72
2024/04/26 02:08:01;;;;;;;;;;;;;;;;;;5380791;26;19925;-71
2024/04/26 02:10:27;;;;;;;;;;;;;;;;;;5380845;26;20260;-72
2024/04/26 02:12:56;;;;;;;;;;;;;;;;;;5380202;26;19926;-72
2024/04/26 02:15:22;;;;;;;;;;;;;;;;;;5379788;26;19933;-72
2024/04/26 02:17:50;;;;;;;;;;;;;;;;;;5380510;26;20076;-72
2024/04/26 02:20:16;;;;;;;;;;;;;;;;;;5380445;26;20372;-72
2024/04/26 02:22:45;;;;;;;;;;;;;;;;;;5380490;26;19954;-72
2024/04/26 02:25:13;;;;;;;;;;;;;;;;;;5380075;26;19925;-72
2024/04/26 02:27:42;;;;;;;;;;;;;;;;;;5380380;26;19937;-72
2024/04/26 02:30:11;;;;;;;;;;;;;;;;;;5380135;26;19925;-72
2024/04/26 02:32:40;;;;;;;;;;;;;;;;;;5380233;26;19933;-72
2024/04/26 02:35:09;;;;;;;;;;;;;;;;;;5379912;26;19931;-71
2024/04/26 02:37:38;;;;;;;;;;;;;;;;;;5380094;26;19926;-72
2024/04/26 02:40:06;;;;;;;;;;;;;;;;;;5379774;26;19925;-72
2024/04/26 02:42:35;;;;;;;;;;;;;;;;;;5380021;26;19925;-72
2024/04/26 02:45:03;;;;;;;;;;;;;;;;;;5379751;26;19925;-72
2024/04/26 02:47:32;;;;;;;;;;;;;;;;;;5379837;26;19932;-72
2024/04/26 02:50:01;;;;;;;;;;;;;;;;;;5379997;26;19932;-72
2024/04/26 02:52:29;;;;;;;;;;;;;;;;;;5379867;26;19997;-72
2024/04/26 02:54:58;;;;;;;;;;;;;;;;;;5379611;26;19925;-72
2024/04/26 02:57:26;;;;;;;;;;;;;;;;;;5379826;26;19926;-72
2024/04/26 02:59:55;;;;;;;;;;;;;;;;;;5379807;26;19925;-72
2024/04/26 03:02:25;;;;;;;;;;;;;;;;;;5379878;26;19932;-72
2024/04/26 03:04:53;;;;;;;;;;;;;;;;;;5379939;26;19958;-72
2024/04/26 03:07:22;;;;;;;;;;;;;;;;;;5380017;26;19933;-72
2024/04/26 03:09:51;;;;;;;;;;;;;;;;;;5380108;26;19948;-72
2024/04/26 03:12:20;;;;;;;;;;;;;;;;;;5380009;26;20024;-72
2024/04/26 03:14:48;;;;;;;;;;;;;;;;;;5379471;26;20246;-72
2024/04/26 03:17:18;;;;;;;;;;;;;;;;;;5379846;26;20265;-72
2024/04/26 03:19:46;;;;;;;;;;;;;;;;;;5379879;26;20260;-72
2024/04/26 03:22:15;;;;;;;;;;;;;;;;;;5380220;26;20574;-72
2024/04/26 03:24:44;;;;;;;;;;;;;;;;;;5379939;26;19926;-72
2024/04/26 03:27:13;;;;;;;;;;;;;;;;;;5383183;26;19925;-72
2024/04/26 03:29:41;;;;;;;;;;;;;;;;;;5383130;26;19925;-72
2024/04/26 03:32:10;;;;;;;;;;;;;;;;;;5383023;26;19925;-72
2024/04/26 03:34:39;;;;;;;;;;;;;;;;;;5382813;26;19925;-72
2024/04/26 03:37:07;;;;;;;;;;;;;;;;;;5383001;26;19925;-71
2024/04/26 03:39:36;;;;;;;;;;;;;;;;;;5382986;26;19932;-72
2024/04/26 03:42:04;;;;;;;;;;;;;;;;;;5383315;26;19925;-72
2024/04/26 03:44:33;;;;;;;;;;;;;;;;;;5382627;26;19925;-72
2024/04/26 03:47:02;;;;;;;;;;;;;;;;;;5382735;26;19937;-72
2024/04/26 03:49:30;;;;;;;;;;;;;;;;;;5382864;26;19933;-72
2024/04/26 03:51:59;;;;;;;;;;;;;;;;;;5383106;26;19925;-72
2024/04/26 03:54:27;;;;;;;;;;;;;;;;;;5382486;26;19926;-72
2024/04/26 03:56:58;;;;;;;;;;;;;;;;;;5382612;26;19926;-72
2024/04/26 03:59:26;;;;;;;;;;;;;;;;;;5380797;26;19949;-72
2024/04/26 04:01:55;;;;;;;;;;;;;;;;;;5382094;26;19925;-72
2024/04/26 04:04:24;;;;;;;;;;;;;;;;;;5382242;26;19933;-72
2024/04/26 04:06:52;;;;;;;;;;;;;;;;;;5382501;26;19932;-72
2024/04/26 04:09:21;;;;;;;;;;;;;;;;;;5382552;26;19925;-72
2024/04/26 04:11:49;;;;;;;;;;;;;;;;;;5382310;26;19925;-72
2024/04/26 04:14:18;;;;;;;;;;;;;;;;;;5382210;26;20001;-72
2024/04/26 04:16:46;;;;;;;;;;;;;;;;;;5382475;26;19933;-72
2024/04/26 04:19:15;;;;;;;;;;;;;;;;;;5382720;26;19933;-72
2024/04/26 04:21:44;;;;;;;;;;;;;;;;;;5382408;26;19941;-72
2024/04/26 04:24:12;;;;;;;;;;;;;;;;;;5382072;26;19925;-72
2024/04/26 04:26:41;;;;;;;;;;;;;;;;;;5382261;26;19925;-72
2024/04/26 04:29:09;;;;;;;;;;;;;;;;;;5382535;26;20272;-72
2024/04/26 04:31:38;;;;;;;;;;;;;;;;;;5382346;26;20296;-72
2024/04/26 04:34:07;;;;;;;;;;;;;;;;;;5381932;26;20369;-72
2024/04/26 04:36:35;;;;;;;;;;;;;;;;;;5381362;26;19925;-72
2024/04/26 04:39:04;;;;;;;;;;;;;;;;;;5382490;26;19933;-72
2024/04/26 04:41:32;;;;;;;;;;;;;;;;;;5382304;26;20269;-72
2024/04/26 04:44:01;;;;;;;;;;;;;;;;;;5381694;26;20383;-72
2024/04/26 04:46:29;;;;;;;;;;;;;;;;;;5381902;26;19926;-72
2024/04/26 04:49:01;;;;;;;;;;;;;;;;;;5381986;26;19933;-72
2024/04/26 04:51:30;;;;;;;;;;;;;;;;;;5381958;26;19991;-72
2024/04/26 04:53:58;;;;;;;;;;;;;;;;;;5381576;26;19925;-72
2024/04/26 04:56:27;;;;;;;;;;;;;;;;;;5382249;26;19938;-72
2024/04/26 04:58:55;;;;;;;;;;;;;;;;;;5381901;26;19925;-72
2024/04/26 05:01:24;;;;;;;;;;;;;;;;;;5381914;26;19933;-72
2024/04/26 05:03:53;;;;;;;;;;;;;;;;;;5381572;26;19925;-72
2024/04/26 05:06:22;;;;;;;;;;;;;;;;;;5381690;26;19925;-72
2024/04/26 05:08:50;;;;;;;;;;;;;;;;;;5381792;26;19925;-72
2024/04/26 05:11:19;;;;;;;;;;;;;;;;;;5381599;26;20268;-72
2024/04/26 05:13:47;;;;;;;;;;;;;;;;;;5381367;26;20264;-72
2024/04/26 05:16:16;;;;;;;;;;;;;;;;;;5381595;26;19937;-72
2024/04/26 05:18:44;;;;;;;;;;;;;;;;;;5380990;26;19934;-72
2024/04/26 05:21:13;;;;;;;;;;;;;;;;;;5381460;26;19948;-72
2024/04/26 05:23:42;;;;;;;;;;;;;;;;;;5380925;26;19925;-72
2024/04/26 05:26:10;;;;;;;;;;;;;;;;;;5381312;26;20267;-72
2024/04/26 05:28:39;;;;;;;;;;;;;;;;;;5381512;26;20296;-72
2024/04/26 05:31:07;;;;;;;;;;;;;;;;;;5381600;26;20277;-72
2024/04/26 05:33:36;;;;;;;;;;;;;;;;;;5381021;26;19975;-72
2024/04/26 05:36:05;;;;;;;;;;;;;;;;;;5381313;26;19936;-72
2024/04/26 05:38:33;;;;;;;;;;;;;;;;;;5381402;26;20249;-72
2024/04/26 05:41:02;;;;;;;;;;;;;;;;;;5381084;26;20268;-72
2024/04/26 05:43:31;;;;;;;;;;;;;;;;;;5381312;26;20363;-72
2024/04/26 05:45:59;;;;;;;;;;;;;;;;;;5381315;26;19932;-72
2024/04/26 05:48:31;;;;;;;;;;;;;;;;;;5379741;26;19925;-71
2024/04/26 05:51:00;;;;;;;;;;;;;;;;;;5381318;26;19925;-71
2024/04/26 05:53:28;;;;;;;;;;;;;;;;;;5381019;26;19926;-72
2024/04/26 05:56:00;;;;;;;;;;;;;;;;;;5380964;26;19926;-72
2024/04/26 05:58:28;;;;;;;;;;;;;;;;;;5380949;26;19932;-72
2024/04/26 06:00:57;;;;;;;;;;;;;;;;;;5381075;26;19925;-72
2024/04/26 06:03:25;;;;;;;;;;;;;;;;;;5380656;26;20272;-72
2024/04/26 06:05:56;;;;;;;;;;;;;;;;;;5380908;26;20425;-72
2024/04/26 06:08:25;;;;;;;;;;;;;;;;;;5380834;26;19926;-71
2024/04/26 06:10:54;;;;;;;;;;;;;;;;;;5380931;26;19932;-72
2024/04/26 06:13:22;;;;;;;;;;;;;;;;;;5380555;26;19933;-72
2024/04/26 06:15:51;;;;;;;;;;;;;;;;;;5380864;26;20380;-72
2024/04/26 06:18:20;;;;;;;;;;;;;;;;;;5380891;26;19926;-72
2024/04/26 06:20:48;;;;;;;;;;;;;;;;;;5381133;26;19932;-72
2024/04/26 06:23:17;;;;;;;;;;;;;;;;;;5380246;26;19925;-72
2024/04/26 06:25:45;;;;;;;;;;;;;;;;;;5380692;26;19925;-72
2024/04/26 06:28:14;;;;;;;;;;;;;;;;;;5380701;26;19933;-72
2024/04/26 06:30:43;;;;;;;;;;;;;;;;;;5380365;26;20455;-72
2024/04/26 06:33:11;;;;;;;;;;;;;;;;;;5379186;26;19932;-72
2024/04/26 06:35:43;;;;;;;;;;;;;;;;;;5379515;26;19937;-72
2024/04/26 06:38:14;;;;;;;;;;;;;;;;;;5380434;26;19926;-72
2024/04/26 06:40:42;;;;;;;;;;;;;;;;;;5380500;26;19926;-72
2024/04/26 06:43:12;;;;;;;;;;;;;;;;;;5380065;26;19925;-72
2024/04/26 06:45:40;;;;;;;;;;;;;;;;;;5380804;26;19936;-72
2024/04/26 06:48:06;;;;;;;;;;;;;;;;;;5380281;26;19926;-72
2024/04/26 06:50:35;;;;;;;;;;;;;;;;;;5380421;26;19955;-72
2024/04/26 06:53:04;;;;;;;;;;;;;;;;;;5379825;26;20372;-72
2024/04/26 06:55:33;;;;;;;;;;;;;;;;;;5380269;26;19926;-72
2024/04/26 06:58:01;;;;;;;;;;;;;;;;;;5380299;26;20022;-72
2024/04/26 07:00:30;;;;;;;;;;;;;;;;;;5380077;26;20257;-72
2024/04/26 07:02:59;;;;;;;;;;;;;;;;;;5380091;26;20364;-72
2024/04/26 07:05:27;;;;;;;;;;;;;;;;;;5371512;26;20021;-73
2024/04/26 07:07:56;;;;;;;;;;;;;;;;;;5362346;26;19925;-72
2024/04/26 07:10:24;;;;;;;;;;;;;;;;;;5379190;26;19926;-72
2024/04/26 07:12:53;;;;;;;;;;;;;;;;;;5379593;26;19933;-73
2024/04/26 07:15:22;;;;;;;;;;;;;;;;;;5379033;26;19933;-72
2024/04/26 07:17:50;;;;;;;;;;;;;;;;;;5379550;26;19933;-72
2024/04/26 07:20:19;;;;;;;;;;;;;;;;;;5356675;26;19925;-72
2024/04/26 07:22:50;;;;;;;;;;;;;;;;;;5370627;26;20265;-72
2024/04/26 07:25:19;;;;;;;;;;;;;;;;;;5359680;26;19933;-72
2024/04/26 07:27:47;;;;;;;;;;;;;;;;;;5365944;26;19933;-72
2024/04/26 07:30:16;;;;;;;;;;;;;;;;;;5377663;26;19926;-72
2024/04/26 07:32:44;;;;;;;;;;;;;;;;;;5378788;26;19936;-72
2024/04/26 07:35:13;;;;;;;;;;;;;;;;;;5378459;26;19942;-73
2024/04/26 07:37:41;;;;;;;;;;;;;;;;;;5379124;26;19926;-72
2024/04/26 07:40:10;;;;;;;;;;;;;;;;;;5378639;26;20256;-72
2024/04/26 07:42:39;;;;;;;;;;;;;;;;;;5378546;26;20368;-72
2024/04/26 07:45:07;;;;;;;;;;;;;;;;;;5378493;26;19926;-72
2024/04/26 07:47:36;;;;;;;;;;;;;;;;;;5377305;26;19925;-73
2024/04/26 07:50:04;;;;;;;;;;;;;;;;;;5376325;26;20451;-72
2024/04/26 07:52:33;;;;;;;;;;;;;;;;;;5376056;26;19926;-72
2024/04/26 07:55:02;;;;;;;;;;;;;;;;;;5376762;26;19925;-72
2024/04/26 07:57:30;;;;;;;;;;;;;;;;;;5377863;26;19934;-72
2024/04/26 07:59:59;;;;;;;;;;;;;;;;;;5378539;26;19926;-72
2024/04/26 08:02:27;;;;;;;;;;;;;;;;;;5377239;26;19931;-72
2024/04/26 08:04:59;;;;;;;;;;;;;;;;;;5377607;26;19933;-73
2024/04/26 08:07:27;;;;;;;;;;;;;;;;;;5387593;26;19925;-72
2024/04/26 08:09:56;;;;;;;;;;;;;;;;;;5377786;26;19933;-72
2024/04/26 08:12:25;;;;;;;;;;;;;;;;;;5366011;26;19925;-72
2024/04/26 08:14:53;;;;;;;;;;;;;;;;;;5388948;26;19940;-72
2024/04/26 08:17:22;;;;;;;;;;;;;;;;;;5385169;26;19926;-72
2024/04/26 08:19:50;;;;;;;;;;;;;;;;;;5381078;26;19926;-72
2024/04/26 08:22:19;;;;;;;;;;;;;;;;;;5375328;26;19926;-72
2024/04/26 08:24:48;;;;;;;;;;;;;;;;;;5394141;26;20264;-72
2024/04/26 08:27:16;;;;;;;;;;;;;;;;;;5382851;26;20268;-72
2024/04/26 08:29:46;;;;;;;;;;;;;;;;;;5379344;26;20371;-72
2024/04/26 08:32:15;;;;;;;;;;;;;;;;;;5374499;26;19925;-72
2024/04/26 08:34:43;;;;;;;;;;;;;;;;;;5382356;26;19937;-72
2024/04/26 08:37:12;;;;;;;;;;;;;;;;;;5381152;26;20260;-72
2024/04/26 08:39:41;;;;;;;;;;;;;;;;;;5381018;26;19932;-72
2024/04/26 08:42:11;;;;;;;;;;;;;;;;;;5380873;26;20285;-72
2024/04/26 08:44:40;;;;;;;;;;;;;;;;;;5380007;26;19937;-72
2024/04/26 08:47:08;;;;;;;;;;;;;;;;;;5380363;26;19926;-72
2024/04/26 08:49:38;;;;;;;;;;;;;;;;;;5380741;26;19925;-73
2024/04/26 08:52:07;;;;;;;;;;;;;;;;;;5380451;26;19925;-72
2024/04/26 08:54:35;;;;;;;;;;;;;;;;;;5380042;26;19926;-73
2024/04/26 08:57:04;;;;;;;;;;;;;;;;;;5380713;26;19944;-73
2024/04/26 08:59:33;;;;;;;;;;;;;;;;;;5379869;26;19938;-73
2024/04/26 09:02:01;;;;;;;;;;;;;;;;;;5388634;26;19933;-73
2024/04/26 09:04:30;;;;;;;;;;;;;;;;;;5380335;26;19925;-73
2024/04/26 09:06:59;;;;;;;;;;;;;;;;;;5371561;26;19933;-73
2024/04/26 09:09:27;;;;;;;;;;;;;;;;;;5380591;26;19926;-73
2024/04/26 09:11:56;;;;;;;;;;;;;;;;;;5380138;26;20013;-73
2024/04/26 09:14:24;;;;;;;;;;;;;;;;;;5380769;26;19925;-73
2024/04/26 09:16:53;;;;;;;;;;;;;;;;;;5379602;26;19925;-73
2024/04/26 09:19:22;;;;;;;;;;;;;;;;;;5380420;26;19926;-73
2024/04/26 09:21:51;;;;;;;;;;;;;;;;;;5380067;26;20368;-73
2024/04/26 09:24:19;;;;;;;;;;;;;;;;;;5379830;26;19926;-73
2024/04/26 09:26:48;;;;;;;;;;;;;;;;;;5380235;26;19933;-73
2024/04/26 09:29:16;;;;;;;;;;;;;;;;;;5380329;26;19925;-73
2024/04/26 09:31:45;;;;;;;;;;;;;;;;;;5380515;26;19926;-73
2024/04/26 09:34:15;;;;;;;;;;;;;;;;;;5379506;26;19925;-73
2024/04/26 09:36:44;;;;;;;;;;;;;;;;;;5380044;26;19944;-73
2024/04/26 09:39:13;;;;;;;;;;;;;;;;;;5380283;26;19925;-73
2024/04/26 09:41:44;;;;;;;;;;;;;;;;;;5379332;26;19925;-73
2024/04/26 09:44:12;;;;;;;;;;;;;;;;;;5379700;26;20368;-73
2024/04/26 09:46:41;;;;;;;;;;;;;;;;;;5352074;26;20384;-73
2024/04/26 09:49:10;;;;;;;;;;;;;;;;;;5344859;26;20424;-73
2024/04/26 09:51:38;;;;;;;;;;;;;;;;;;5345473;26;20284;-73
2024/04/26 09:54:07;;;;;;;;;;;;;;;;;;5364189;26;19926;-74
2024/04/26 09:56:36;;;;;;;;;;;;;;;;;;5374213;26;20024;-73
2024/04/26 09:59:05;;;;;;;;;;;;;;;;;;5377744;26;20260;-73
2024/04/26 10:01:34;;;;;;;;;;;;;;;;;;5378582;26;20249;-74
2024/04/26 10:04:02;;;;;;;;;;;;;;;;;;5378185;26;19926;-73
2024/04/26 10:06:31;;;;;;;;;;;;;;;;;;5379298;26;19926;-74
2024/04/26 10:08:59;;;;;;;;;;;;;;;;;;5378811;26;19926;-74
2024/04/26 10:11:28;;;;;;;;;;;;;;;;;;5379191;26;19933;-74
2024/04/26 10:13:58;;;;;;;;;;;;;;;;;;5378497;26;19926;-73
2024/04/26 10:16:27;;;;;;;;;;;;;;;;;;5378692;26;19936;-73
2024/04/26 10:18:55;;;;;;;;;;;;;;;;;;5369760;26;19926;-73
2024/04/26 10:21:24;;;;;;;;;;;;;;;;;;5379686;26;19926;-73
2024/04/26 10:23:53;;;;;;;;;;;;;;;;;;5379111;26;20351;-72
2024/04/26 10:26:22;;;;;;;;;;;;;;;;;;5379248;26;20383;-74
2024/04/26 10:28:50;;;;;;;;;;;;;;;;;;5378030;26;20380;-73
2024/04/26 10:31:19;;;;;;;;;;;;;;;;;;5377916;26;19932;-73
2024/04/26 10:33:47;;;;;;;;;;;;;;;;;;5377872;26;19926;-73
2024/04/26 10:36:19;;;;;;;;;;;;;;;;;;5377097;26;19926;-73
2024/04/26 10:38:48;;;;;;;;;;;;;;;;;;5371865;26;20023;-73
2024/04/26 10:41:17;;;;;;;;;;;;;;;;;;5369122;26;20538;-73
2024/04/26 10:43:47;;;;;;;;;;;;;;;;;;5376430;26;20380;-73
2024/04/26 10:46:15;;;;;;;;;;;;;;;;;;5377841;26;19926;-73
2024/04/26 10:48:44;;;;;;;;;;;;;;;;;;5377452;26;19937;-73
2024/04/26 10:51:13;;;;;;;;;;;;;;;;;;5378664;26;19926;-73
2024/04/26 10:53:41;;;;;;;;;;;;;;;;;;5376754;26;19926;-73
2024/04/26 10:56:10;;;;;;;;;;;;;;;;;;5378539;26;19925;-73
2024/04/26 10:58:38;;;;;;;;;;;;;;;;;;5378467;26;19933;-74
2024/04/26 11:01:07;;;;;;;;;;;;;;;;;;5378715;26;20691;-74
2024/04/26 11:03:36;;;;;;;;;;;;;;;;;;5377841;26;20375;-74
2024/04/26 11:06:04;;;;;;;;;;;;;;;;;;5378143;26;20335;-73
2024/04/26 11:08:33;;;;;;;;;;;;;;;;;;5378512;26;19932;-74
2024/04/26 11:11:01;;;;;;;;;;;;;;;;;;5378411;26;19926;-73
2024/04/26 11:13:30;;;;;;;;;;;;;;;;;;5377985;26;19926;-73
2024/04/26 11:15:59;;;;;;;;;;;;;;;;;;5378024;26;20352;-73
2024/04/26 11:18:27;;;;;;;;;;;;;;;;;;5378036;26;20428;-73
2024/04/26 11:20:58;;;;;;;;;;;;;;;;;;5377976;26;20360;-73
2024/04/26 11:23:26;;;;;;;;;;;;;;;;;;5377949;26;19932;-73
2024/04/26 11:25:55;;;;;;;;;;;;;;;;;;5378660;26;19925;-74
2024/04/26 11:28:23;;;;;;;;;;;;;;;;;;5384612;26;19926;-74
2024/04/26 11:30:52;;;;;;;;;;;;;;;;;;5378300;26;19925;-73
2024/04/26 11:33:21;;;;;;;;;;;;;;;;;;5386765;26;19925;-73
2024/04/26 11:35:49;;;;;;;;;;;;;;;;;;5364114;26;19935;-74
2024/04/26 11:38:18;;;;;;;;;;;;;;;;;;5377629;26;19926;-73
2024/04/26 11:40:47;;;;;;;;;;;;;;;;;;5377946;26;19926;-73
2024/04/26 11:43:16;;;;;;;;;;;;;;;;;;5377884;26;19958;-74
2024/04/26 11:45:44;;;;;;;;;;;;;;;;;;5363743;26;19936;-73
2024/04/26 11:48:13;;;;;;;;;;;;;;;;;;5381382;26;19926;-73
2024/04/26 11:50:44;;;;;;;;;;;;;;;;;;5381116;26;19933;-73
2024/04/26 11:53:13;;;;;;;;;;;;;;;;;;5380659;26;19925;-74
2024/04/26 11:55:44;;;;;;;;;;;;;;;;;;5383801;26;19944;-74
2024/04/26 11:58:13;;;;;;;;;;;;;;;;;;5370827;26;19994;-74
2024/04/26 12:00:41;;;;;;;;;;;;;;;;;;5357283;26;20257;-74
2024/04/26 12:03:07;;;;;;;;;;;;;;;;;;5359997;26;19933;-73
2024/04/26 12:05:38;;;;;;;;;;;;;;;;;;5360030;26;19926;-73
2024/04/26 12:08:07;;;;;;;;;;;;;;;;;;5354419;26;19953;-73
2024/04/26 12:10:35;;;;;;;;;;;;;;;;;;5353718;26;19933;-73
2024/04/26 12:13:04;;;;;;;;;;;;;;;;;;5371194;26;19945;-73
2024/04/26 12:15:34;;;;;;;;;;;;;;;;;;5361978;26;19926;-73
2024/04/26 12:18:03;;;;;;;;;;;;;;;;;;5351219;26;19925;-73
2024/04/26 12:20:32;;;;;;;;;;;;;;;;;;5356650;26;19941;-73
2024/04/26 12:23:01;;;;;;;;;;;;;;;;;;5362440;26;20254;-74
2024/04/26 12:25:31;;;;;;;;;;;;;;;;;;5373862;26;20259;-74
2024/04/26 12:28:04;;;;;;;;;;;;;;;;;;5352009;26;19999;-73
2024/04/26 12:30:32;;;;;;;;;;;;;;;;;;5361799;26;19932;-73
2024/04/26 12:33:01;;;;;;;;;;;;;;;;;;5363155;26;19926;-74
2024/04/26 12:35:30;;;;;;;;;;;;;;;;;;5361784;26;19925;-73
2024/04/26 12:37:58;;;;;;;;;;;;;;;;;;5370878;26;19926;-73
2024/04/26 12:40:29;;;;;;;;;;;;;;;;;;5362659;26;19926;-74
2024/04/26 12:42:57;;;;;;;;;;;;;;;;;;5359749;26;19925;-73
2024/04/26 12:45:27;;;;;;;;;;;;;;;;;;5362351;26;20275;-72
2024/04/26 12:47:55;;;;;;;;;;;;;;;;;;5363198;26;19933;-73
2024/04/26 12:50:24;;;;;;;;;;;;;;;;;;5374151;26;19925;-74
2024/04/26 12:52:52;;;;;;;;;;;;;;;;;;5361867;26;19926;-73
2024/04/26 12:55:23;;;;;;;;;;;;;;;;;;5371665;26;19925;-74
2024/04/26 12:57:52;;;;;;;;;;;;;;;;;;5361042;26;19926;-74
2024/04/26 13:00:20;;;;;;;;;;;;;;;;;;5362097;26;19934;-73
2024/04/26 13:02:52;;;;;;;;;;;;;;;;;;5352250;26;19925;-74
2024/04/26 13:05:20;;;;;;;;;;;;;;;;;;5350784;26;20535;-72
2024/04/26 13:07:49;;;;;;;;;;;;;;;;;;5367529;26;19926;-74
2024/04/26 13:10:18;;;;;;;;;;;;;;;;;;5372310;26;20264;-74
2024/04/26 13:12:46;;;;;;;;;;;;;;;;;;5363300;26;20357;-73
2024/04/26 13:15:15;;;;;;;;;;;;;;;;;;5373253;26;19932;-73
2024/04/26 13:17:44;;;;;;;;;;;;;;;;;;5352989;26;20853;-73
2024/04/26 13:20:12;;;;;;;;;;;;;;;;;;5364184;26;20379;-74
2024/04/26 13:22:41;;;;;;;;;;;;;;;;;;5368417;26;20368;-74
2024/04/26 13:25:09;;;;;;;;;;;;;;;;;;5374107;26;19927;-73
2024/04/26 13:27:38;;;;;;;;;;;;;;;;;;5376159;26;19925;-74
2024/04/26 13:30:07;;;;;;;;;;;;;;;;;;5376636;26;20382;-74
2024/04/26 13:32:35;;;;;;;;;;;;;;;;;;5362736;26;20373;-74
2024/04/26 13:35:04;;;;;;;;;;;;;;;;;;5349200;26;20400;-74
2024/04/26 13:37:33;;;;;;;;;;;;;;;;;;5361635;26;20368;-73
2024/04/26 13:40:02;;;;;;;;;;;;;;;;;;5372233;26;19926;-74
2024/04/26 13:42:30;;;;;;;;;;;;;;;;;;5372699;26;19948;-74
2024/04/26 13:44:59;;;;;;;;;;;;;;;;;;5360583;26;19995;-75
2024/04/26 13:47:28;;;;;;;;;;;;;;;;;;5376861;26;20306;-75
2024/04/26 13:49:56;;;;;;;;;;;;;;;;;;5376873;26;20375;-74
2024/04/26 13:52:25;;;;;;;;;;;;;;;;;;5370146;26;19925;-75
2024/04/26 13:54:54;;;;;;;;;;;;;;;;;;5364706;26;19925;-74
2024/04/26 13:57:23;;;;;;;;;;;;;;;;;;5377049;26;20331;-74
2024/04/26 13:59:52;;;;;;;;;;;;;;;;;;5378792;26;20597;-73
2024/04/26 14:02:21;;;;;;;;;;;;;;;;;;5370523;26;19936;-74
2024/04/26 14:04:49;;;;;;;;;;;;;;;;;;5351476;26;20183;-73
2024/04/26 14:07:18;;;;;;;;;;;;;;;;;;5361691;26;20372;-73
2024/04/26 14:09:44;;;;;;;;;;;;;;;;;;5360555;26;20462;-74
2024/04/26 14:12:13;;;;;;;;;;;;;;;;;;5378498;26;19953;-74
2024/04/26 14:14:41;;;;;;;;;;;;;;;;;;5378904;26;19925;-74
2024/04/26 14:17:10;;;;;;;;;;;;;;;;;;5379065;26;19932;-73
2024/04/26 14:19:39;;;;;;;;;;;;;;;;;;5375870;26;19926;-73
2024/04/26 14:22:07;;;;;;;;;;;;;;;;;;5358805;26;19932;-75
2024/04/26 14:24:36;;;;;;;;;;;;;;;;;;5372831;26;19932;-73
2024/04/26 14:27:04;;;;;;;;;;;;;;;;;;5379052;26;19926;-73
2024/04/26 14:29:34;;;;;;;;;;;;;;;;;;5378626;26;19925;-72
2024/04/26 14:32:05;;;;;;;2.75;2.55;;;;;;;;;;5378287;26;19925;-73
2024/04/26 14:34:34;;;;;;;3.40;3.10;;;;;;;;;;5359572;26;20472;-73
2024/04/26 14:37:03;;;;;;;2.43;2.20;;;;;;;;;;5377943;26;21028;-73
2024/04/26 14:39:33;;;;;;;2.47;2.37;;;;;;;;;;5375817;26;20542;-73
2024/04/26 14:42:02;;;;;;;3.13;2.93;;;;;;;;;;5363625;26;20595;-73
2024/04/26 14:44:31;;;;;;;2.43;2.20;;;;;;;;;;5363467;26;20535;-72
2024/04/26 14:47:00;;;;;;;2.30;2.20;;;;;;;;;;5377228;26;20538;-73
2024/04/26 14:49:31;;;;;;;3.60;2.50;;;;;;;;;;5377169;26;20466;-73
2024/04/26 14:52:00;;;;;;;2.40;2.20;;;;;;;;;;5377685;26;20474;-73
2024/04/26 14:54:29;;;;;;;3.20;2.20;;;;;;;;;;5363206;26;20500;-73
2024/04/26 14:57:00;;;;;;;2.80;2.10;;;;;;;;;;5377079;26;20473;-73
2024/04/26 14:59:29;;;;;;;2.20;1.90;;;;;;;;;;5377421;26;21345;-73
2024/04/26 15:01:58;;;;;;;3.83;2.20;;;;;;;;;;5377440;26;20537;-73
2024/04/26 15:04:26;;;;;;;2.83;2.63;;;;;;;;;;5377735;26;20536;-73
2024/04/26 15:06:58;;;;;;;2.53;2.17;;;;;;;;;;5377515;26;20533;-73
2024/04/26 15:09:27;;;;;;;2.90;2.70;;;;;;;;;;5376842;26;21026;-73
2024/04/26 15:11:56;;;;;;;2.83;2.63;;;;;;;;;;5373027;26;21097;-73
2024/04/26 15:14:25;;;;;;;4.90;2.47;;;;;;;;;;5377723;26;21097;-73
2024/04/26 15:16:55;;;;;;;2.37;2.23;;;;;;;;;;5377326;26;20476;-73
2024/04/26 15:19:23;;;;;;;2.37;2.10;;;;;;;;;;5377777;26;20867;-73
2024/04/26 15:21:52;;;;;;;1.63;1.53;;;;;;;;;;5360677;26;21076;-73
2024/04/26 15:24:24;;;;;;;2.70;2.17;;;;;;;;;;5356955;26;20471;-73
2024/04/26 15:26:52;;;;;;;3.00;2.63;;;;;;;;;;5362966;26;20822;-73
2024/04/26 15:29:21;;;;;;;2.57;2.37;;;;;;;;;;5377069;26;21071;-73
2024/04/26 15:31:50;;;;;;;2.50;2.20;;;;;;;;;;5377334;26;20466;-73
2024/04/26 15:34:19;;;;;;;2.00;1.80;;;;;;;;;;5376610;26;20916;-73
2024/04/26 15:36:48;;;;;;;2.47;2.27;;;;;;;;;;5376828;26;20492;-73
2024/04/26 15:39:17;;;;;;;2.33;2.13;;;;;;;;;;5376968;26;20470;-72
2024/04/26 15:41:51;;;;;;;2.13;2.03;;;;;;;;;;5376510;26;20583;-73
2024/04/26 15:44:20;;;;;;;3.27;2.77;;;;;;;;;;5376693;26;20469;-73
2024/04/26 15:46:49;;;;;;;2.63;2.10;;;;;;;;;;5377041;26;20600;-72
2024/04/26 15:49:18;;;;;;;2.10;2.00;;;;;;;;;;5377313;26;20482;-73
2024/04/26 15:51:48;;;;;;;2.57;2.37;;;;;;;;;;5377165;26;20486;-73
2024/04/26 15:54:17;;;;;;;3.53;2.57;;;;;;;;;;5376233;26;20627;-73
2024/04/26 15:56:45;;;;;;;2.57;2.37;;;;;;;;;;5376911;26;20472;-73
2024/04/26 15:59:17;;;;;;;2.93;2.70;;;;;;;;;;5367192;26;20476;-73
2024/04/26 16:01:46;;;;;;;2.50;2.30;;;;;;;;;;5370074;26;20526;-73
2024/04/26 16:04:14;;;;;;;3.03;2.40;;;;;;;;;;5342573;26;20520;-73
2024/04/26 16:06:44;;;;;;;4.40;2.90;;;;;;;;;;5359470;26;20558;-73
2024/04/26 16:09:13;;;;;;;2.50;2.30;;;;;;;;;;5376829;26;20554;-72
2024/04/26 16:11:42;;;;;;;2.73;2.53;;;;;;;;;;5376638;26;20471;-73
2024/04/26 16:14:10;;;;;;;2.90;2.70;;;;;;;;;;5376643;26;20468;-73
2024/04/26 16:16:42;;;;;;;3.77;3.47;;;;;;;;;;5376574;26;20518;-73
2024/04/26 16:19:11;;;;;;;3.03;2.83;;;;;;;;;;5376151;26;21421;-73
2024/04/26 16:21:43;;;;;;;3.27;2.97;;;;;;;;;;5375773;26;20472;-73
2024/04/26 16:24:11;;;;;;;2.90;2.70;;;;;;;;;;5375935;26;20465;-73
2024/04/26 16:26:40;;;;;;;2.67;2.47;;;;;;;;;;5375957;26;20528;-72
2024/04/26 16:29:11;;;;;;;5.83;2.93;;;;;;;;;;5375825;26;20469;-73
2024/04/26 16:31:42;;;;;;;5.40;3.03;;;;;;;;;;5372271;26;20473;-72
2024/04/26 16:34:13;;;;;;;2.97;2.67;;;;;;;;;;5372474;26;21030;-73
2024/04/26 16:36:42;;;;;;;3.40;3.20;;;;;;;;;;5382556;26;20536;-72
2024/04/26 16:39:11;;;;;;;3.20;2.63;;;;;;;;;;5379462;26;20884;-72